Time;durP1;ratioP1;P1;durP2;ratioP2;P2;SDS_P1;SDS_P2;PMS_P1;PMS_P2;Temp;Humidity;BMP_temperature;BMP_pressure;BME280_temperature;BME280_humidity;BME280_pressure;Samples;Min_cycle;Max_cycle;Signal;HPM_P1;HPM_P2
2021/01/08 00:01:54;;;;;;;6.93;4.50;;;0.90;99.90;;;;;;4882405;29;20424;-68
2021/01/08 00:04:21;;;;;;;10.23;5.57;;;0.90;99.90;;;;;;4882290;29;20452;-68
2021/01/08 00:06:48;;;;;;;7.00;4.60;;;1.00;99.90;;;;;;4882177;29;20494;-68
2021/01/08 00:09:14;;;;;;;7.90;5.40;;;1.00;99.90;;;;;;4882752;29;20441;-68
2021/01/08 00:11:40;;;;;;;6.87;5.20;;;1.00;99.90;;;;;;4882372;29;20432;-68
2021/01/08 00:14:07;;;;;;;8.93;6.00;;;1.00;99.90;;;;;;4882105;29;20452;-69
2021/01/08 00:16:33;;;;;;;8.50;4.90;;;1.00;99.90;;;;;;4881871;29;20645;-68
2021/01/08 00:19:00;;;;;;;12.50;5.90;;;0.90;99.90;;;;;;4882308;29;20516;-68
2021/01/08 00:21:36;;;;;;;7.93;5.60;;;1.00;99.90;;;;;;4881929;29;20473;-68
2021/01/08 00:24:03;;;;;;;11.37;5.70;;;1.00;99.90;;;;;;4881823;29;20873;-68
2021/01/08 00:26:29;;;;;;;6.70;4.67;;;1.00;99.90;;;;;;4881952;29;20438;-69
2021/01/08 00:28:55;;;;;;;7.57;4.70;;;0.90;99.90;;;;;;4881855;29;20456;-69
2021/01/08 00:31:22;;;;;;;10.67;5.50;;;1.00;99.90;;;;;;4881837;29;20428;-69
2021/01/08 00:33:48;;;;;;;9.30;5.53;;;1.00;99.90;;;;;;4881650;29;20491;-69
2021/01/08 00:36:15;;;;;;;9.07;6.03;;;1.00;99.90;;;;;;4881687;29;20432;-69
2021/01/08 00:38:41;;;;;;;9.80;6.10;;;0.90;99.90;;;;;;4881633;29;20475;-69
2021/01/08 00:41:07;;;;;;;11.40;6.60;;;1.00;99.90;;;;;;4881637;29;20450;-69
2021/01/08 00:43:33;;;;;;;12.37;6.27;;;1.00;99.90;;;;;;4881516;29;20493;-69
2021/01/08 00:45:59;;;;;;;9.43;6.70;;;0.90;99.90;;;;;;4881439;29;20502;-69
2021/01/08 00:48:25;;;;;;;9.10;5.90;;;0.80;99.90;;;;;;4881219;29;20939;-69
2021/01/08 00:50:59;;;;;;;9.70;5.77;;;0.80;99.90;;;;;;4881485;29;20513;-69
2021/01/08 00:53:26;;;;;;;8.80;5.17;;;0.80;99.90;;;;;;4881077;29;20488;-69
2021/01/08 00:55:53;;;;;;;10.87;6.07;;;0.80;99.90;;;;;;4881410;29;20459;-69
2021/01/08 00:58:22;;;;;;;8.23;5.67;;;0.70;99.90;;;;;;4881188;29;20435;-69
2021/01/08 01:00:48;;;;;;;9.20;5.50;;;0.80;99.90;;;;;;4881163;29;20544;-69
2021/01/08 01:03:15;;;;;;;11.30;6.37;;;0.80;99.90;;;;;;4873548;29;20470;-69
2021/01/08 01:05:41;;;;;;;9.37;5.73;;;0.80;99.90;;;;;;4881207;29;20432;-69
2021/01/08 01:08:08;;;;;;;10.43;5.73;;;0.80;99.90;;;;;;4881165;29;20428;-69
2021/01/08 01:10:35;;;;;;;10.30;5.27;;;0.80;99.90;;;;;;4879814;29;20428;-68
2021/01/08 01:13:01;;;;;;;8.73;5.83;;;0.80;99.90;;;;;;4880900;29;20460;-69
2021/01/08 01:15:27;;;;;;;9.20;6.30;;;0.90;99.90;;;;;;4881070;29;20439;-69
2021/01/08 01:17:53;;;;;;;11.67;6.40;;;1.00;99.90;;;;;;4881011;29;20454;-69
2021/01/08 01:20:19;;;;;;;9.80;5.43;;;1.00;99.90;;;;;;4880866;29;20428;-69
2021/01/08 01:22:46;;;;;;;14.07;7.13;;;1.00;99.90;;;;;;4881136;29;20421;-69
2021/01/08 01:25:12;;;;;;;9.93;6.70;;;1.00;99.90;;;;;;4880504;29;20474;-69
2021/01/08 01:27:39;;;;;;;9.63;6.17;;;1.00;99.90;;;;;;4880856;29;20431;-69
2021/01/08 01:30:07;;;;;;;9.33;5.63;;;1.00;99.90;;;;;;4880377;29;21014;-69
2021/01/08 01:32:33;;;;;;;8.63;5.20;;;0.90;99.90;;;;;;4881021;29;20485;-69
2021/01/08 01:34:59;;;;;;;11.10;6.20;;;0.90;99.90;;;;;;4880898;29;20465;-69
2021/01/08 01:37:25;;;;;;;9.63;6.30;;;0.80;99.90;;;;;;4880529;29;20433;-69
2021/01/08 01:39:51;;;;;;;9.20;6.40;;;0.80;99.90;;;;;;4880330;29;20925;-69
2021/01/08 01:42:18;;;;;;;10.80;6.37;;;0.90;99.90;;;;;;4880568;29;20429;-69
2021/01/08 01:44:45;;;;;;;11.90;6.33;;;0.80;99.90;;;;;;4880180;29;21033;-69
2021/01/08 01:47:11;;;;;;;10.10;5.90;;;0.80;99.90;;;;;;4880500;29;20485;-69
2021/01/08 01:49:37;;;;;;;8.73;5.53;;;0.80;99.90;;;;;;4880412;29;20455;-68
2021/01/08 01:52:04;;;;;;;8.43;5.20;;;0.80;99.90;;;;;;4880199;29;20432;-68
2021/01/08 01:54:30;;;;;;;8.27;5.30;;;0.80;99.90;;;;;;4879994;29;20477;-68
2021/01/08 01:56:56;;;;;;;10.50;5.87;;;0.70;99.90;;;;;;4880348;29;20465;-69
2021/01/08 01:59:23;;;;;;;10.40;5.40;;;0.60;99.90;;;;;;4880281;29;20435;-69
2021/01/08 02:01:50;;;;;;;9.73;5.17;;;0.50;99.90;;;;;;4880229;29;20827;-69
2021/01/08 02:04:18;;;;;;;9.20;5.60;;;0.40;99.90;;;;;;4880088;29;20480;-69
2021/01/08 02:06:46;;;;;;;8.13;5.53;;;0.40;99.90;;;;;;4880161;29;20428;-69
2021/01/08 02:09:14;;;;;;;10.17;5.43;;;0.40;99.90;;;;;;4879808;29;20789;-69
2021/01/08 02:11:47;;;;;;;8.73;5.10;;;0.30;99.90;;;;;;4879979;29;20424;-69
2021/01/08 02:14:19;;;;;;;10.40;6.00;;;0.20;99.90;;;;;;4879937;29;20490;-68
2021/01/08 02:16:47;;;;;;;10.53;5.60;;;0.20;99.90;;;;;;4880067;29;20438;-69
2021/01/08 02:19:21;;;;;;;8.30;4.57;;;0.20;99.90;;;;;;4879944;29;20514;-69
2021/01/08 02:21:55;;;;;;;10.80;5.10;;;0.20;99.90;;;;;;4879662;29;20465;-69
2021/01/08 02:24:27;;;;;;;9.63;5.03;;;0.20;99.90;;;;;;4879898;29;20529;-69
2021/01/08 02:26:55;;;;;;;7.90;5.00;;;0.20;99.90;;;;;;4879875;29;20438;-69
2021/01/08 02:29:22;;;;;;;8.90;5.10;;;0.10;99.90;;;;;;4879711;29;20456;-69
2021/01/08 02:31:48;;;;;;;8.37;4.60;;;0.10;99.90;;;;;;4879656;29;20449;-69
2021/01/08 02:34:15;;;;;;;8.27;5.27;;;0.20;99.90;;;;;;4879840;29;20475;-69
2021/01/08 02:36:44;;;;;;;5.63;4.43;;;0.20;99.90;;;;;;4879480;29;20951;-69
2021/01/08 02:39:12;;;;;;;7.40;4.23;;;0.20;99.90;;;;;;4879719;29;20465;-69
2021/01/08 02:41:42;;;;;;;8.87;4.77;;;0.20;99.90;;;;;;4879562;29;20479;-69
2021/01/08 02:44:10;;;;;;;6.80;5.03;;;0.20;99.90;;;;;;4879614;29;20465;-69
2021/01/08 02:46:36;;;;;;;7.80;5.07;;;0.30;99.90;;;;;;4879641;29;20449;-69
2021/01/08 02:49:02;;;;;;;6.87;4.60;;;0.30;99.90;;;;;;4879633;29;20503;-69
2021/01/08 02:51:29;;;;;;;10.00;5.10;;;0.30;99.90;;;;;;4879413;29;20453;-69
2021/01/08 02:53:58;;;;;;;8.47;4.70;;;0.30;99.90;;;;;;4879253;29;20899;-69
2021/01/08 02:56:31;;;;;;;8.20;5.60;;;0.30;99.90;;;;;;4879423;29;20525;-69
2021/01/08 02:58:59;;;;;;;7.53;4.47;;;0.30;99.90;;;;;;4879252;29;20924;-69
2021/01/08 03:01:27;;;;;;;4.90;4.23;;;0.40;99.90;;;;;;4879405;29;20454;-69
2021/01/08 03:03:55;;;;;;;10.17;5.70;;;0.40;99.90;;;;;;4879409;29;20462;-69
2021/01/08 03:06:21;;;;;;;9.50;4.83;;;0.40;99.90;;;;;;4879415;29;20439;-69
2021/01/08 03:08:48;;;;;;;9.77;5.47;;;0.50;99.90;;;;;;4879440;29;20428;-69
2021/01/08 03:11:14;;;;;;;7.07;5.33;;;0.50;99.90;;;;;;4879322;29;20433;-69
2021/01/08 03:13:43;;;;;;;9.07;4.90;;;0.50;99.90;;;;;;4879296;29;20479;-69
2021/01/08 03:16:10;;;;;;;9.23;5.23;;;0.50;99.90;;;;;;4879422;29;20458;-69
2021/01/08 03:18:37;;;;;;;9.20;5.60;;;0.50;99.90;;;;;;4879369;29;20428;-69
2021/01/08 03:21:03;;;;;;;7.17;5.07;;;0.50;99.90;;;;;;4879369;29;20454;-69
2021/01/08 03:23:29;;;;;;;8.67;5.60;;;0.50;99.90;;;;;;4879260;29;20477;-69
2021/01/08 03:25:55;;;;;;;11.43;5.37;;;0.50;99.90;;;;;;4879175;29;20449;-69
2021/01/08 03:28:22;;;;;;;7.37;4.90;;;0.60;99.90;;;;;;4879274;29;20456;-69
2021/01/08 03:30:48;;;;;;;8.23;4.83;;;0.60;99.90;;;;;;4879297;29;20494;-69
2021/01/08 03:33:14;;;;;;;8.93;5.60;;;0.60;99.90;;;;;;4871917;29;20497;-69
2021/01/08 03:35:41;;;;;;;12.63;6.07;;;0.60;99.90;;;;;;4882548;29;21018;-69
2021/01/08 03:38:07;;;;;;;9.70;6.10;;;0.60;99.90;;;;;;4882777;29;20458;-69
2021/01/08 03:40:36;;;;;;;8.53;5.23;;;0.60;99.90;;;;;;4882740;29;20436;-69
2021/01/08 03:43:02;;;;;;;7.50;4.70;;;0.50;99.90;;;;;;4882511;29;20879;-69
2021/01/08 03:45:29;;;;;;;10.80;4.97;;;0.50;99.90;;;;;;4882654;29;20457;-69
2021/01/08 03:47:55;;;;;;;7.30;4.73;;;0.50;99.90;;;;;;4882616;29;20794;-71
2021/01/08 03:50:21;;;;;;;6.97;4.97;;;0.40;99.90;;;;;;4882554;29;20466;-69
2021/01/08 03:52:48;;;;;;;10.00;5.67;;;0.50;99.90;;;;;;4882232;29;20497;-68
2021/01/08 03:55:14;;;;;;;9.80;5.57;;;0.40;99.90;;;;;;4882520;29;20488;-69
2021/01/08 03:57:40;;;;;;;8.40;5.60;;;0.40;99.90;;;;;;4882555;29;20424;-69
2021/01/08 04:00:08;;;;;;;9.27;5.50;;;0.50;99.90;;;;;;4882416;29;20428;-69
2021/01/08 04:02:34;;;;;;;9.17;4.80;;;0.40;99.90;;;;;;4882355;29;20458;-69
2021/01/08 04:05:00;;;;;;;10.47;4.93;;;0.40;99.90;;;;;;4882259;29;20466;-69
2021/01/08 04:07:26;;;;;;;10.33;5.00;;;0.40;99.90;;;;;;4882133;29;20433;-69
2021/01/08 04:09:53;;;;;;;9.73;5.00;;;0.40;99.90;;;;;;4882188;29;20951;-69
2021/01/08 04:12:20;;;;;;;6.50;4.80;;;0.40;99.90;;;;;;4882111;29;20435;-69
2021/01/08 04:14:46;;;;;;;10.97;6.10;;;0.40;99.90;;;;;;4882082;29;20478;-69
2021/01/08 04:17:12;;;;;;;10.60;5.07;;;0.40;99.90;;;;;;4882146;29;20413;-69
2021/01/08 04:19:38;;;;;;;9.53;4.80;;;0.50;99.90;;;;;;4882150;29;20462;-69
2021/01/08 04:22:04;;;;;;;6.90;4.63;;;0.40;99.90;;;;;;4882031;29;20436;-69
2021/01/08 04:24:30;;;;;;;8.53;4.70;;;0.50;99.90;;;;;;4881806;29;20477;-69
2021/01/08 04:26:57;;;;;;;8.20;4.70;;;0.40;99.90;;;;;;4881929;29;20454;-69
2021/01/08 04:29:23;;;;;;;7.27;5.07;;;0.40;99.90;;;;;;4881758;29;20428;-69
2021/01/08 04:31:50;;;;;;;10.27;5.53;;;0.40;99.90;;;;;;4881863;29;20457;-69
2021/01/08 04:34:16;;;;;;;5.43;3.73;;;0.40;99.90;;;;;;4881671;29;20470;-69
2021/01/08 04:36:42;;;;;;;5.73;4.30;;;0.40;99.90;;;;;;4881712;29;20474;-69
2021/01/08 04:39:08;;;;;;;9.13;4.10;;;0.40;99.90;;;;;;4881397;29;20949;-69
2021/01/08 04:41:36;;;;;;;9.20;4.30;;;0.40;99.90;;;;;;4881661;29;20424;-69
2021/01/08 04:44:03;;;;;;;6.80;4.13;;;0.40;99.90;;;;;;4881024;29;20499;-69
2021/01/08 04:46:31;;;;;;;5.20;3.37;;;0.40;99.90;;;;;;4881473;29;20433;-68
2021/01/08 04:49:00;;;;;;;6.73;3.63;;;0.40;99.90;;;;;;4881536;29;20461;-69
2021/01/08 04:51:26;;;;;;;8.07;4.20;;;0.50;99.90;;;;;;4881519;29;20432;-69
2021/01/08 04:53:53;;;;;;;6.70;3.93;;;0.40;99.90;;;;;;4880982;29;20505;-69
2021/01/08 04:56:23;;;;;;;7.50;4.43;;;0.40;99.90;;;;;;4881973;29;20425;-68
2021/01/08 04:58:49;;;;;;;5.47;3.83;;;0.50;99.90;;;;;;4881376;29;20480;-69
2021/01/08 05:01:16;;;;;;;3.87;3.30;;;0.50;99.90;;;;;;4881375;29;20432;-69
2021/01/08 05:03:42;;;;;;;7.73;3.87;;;0.50;99.90;;;;;;4881455;29;20436;-69
2021/01/08 05:06:08;;;;;;;4.20;3.40;;;0.50;99.90;;;;;;4881114;29;20487;-69
2021/01/08 05:08:35;;;;;;;7.73;3.77;;;0.40;99.90;;;;;;4881437;29;20428;-69
2021/01/08 05:11:22;;;;;;;7.27;3.53;;;0.40;99.90;;;;;;4881160;29;20421;-69
2021/01/08 05:13:56;;;;;;;5.47;3.83;;;0.40;99.90;;;;;;4880894;29;20496;-69
2021/01/08 05:16:24;;;;;;;5.03;3.53;;;0.30;99.90;;;;;;4881127;29;20442;-69
2021/01/08 05:18:52;;;;;;;6.70;3.97;;;0.30;99.90;;;;;;4881225;29;20424;-69
2021/01/08 05:21:19;;;;;;;5.03;3.53;;;0.30;99.90;;;;;;4880993;29;20481;-69
2021/01/08 05:23:47;;;;;;;4.47;3.30;;;0.20;99.90;;;;;;4881405;29;20502;-69
2021/01/08 05:26:14;;;;;;;6.10;3.90;;;0.10;99.90;;;;;;4880756;29;20450;-68
2021/01/08 05:28:46;;;;;;;5.50;3.33;;;0.10;99.90;;;;;;4880717;29;20436;-68
2021/01/08 05:31:13;;;;;;;5.77;3.20;;;0.10;99.90;;;;;;4880747;29;20413;-69
2021/01/08 05:33:41;;;;;;;4.70;3.40;;;0.10;99.90;;;;;;4880593;29;20540;-69
2021/01/08 05:36:10;;;;;;;6.60;3.90;;;0.10;99.90;;;;;;4880707;29;20481;-69
2021/01/08 05:38:39;;;;;;;3.70;2.83;;;0.20;99.90;;;;;;4880345;29;20806;-69
2021/01/08 05:41:06;;;;;;;6.23;3.73;;;0.20;99.90;;;;;;4880531;29;20413;-68
2021/01/08 05:43:32;;;;;;;5.50;3.30;;;0.20;99.90;;;;;;4880479;29;20448;-70
2021/01/08 05:46:09;;;;;;;6.50;3.47;;;0.20;99.90;;;;;;4880522;29;20428;-69
2021/01/08 05:48:39;;;;;;;5.03;3.50;;;0.20;99.90;;;;;;4880466;29;20449;-69
2021/01/08 05:51:06;;;;;;;5.53;3.47;;;0.20;99.90;;;;;;4880449;29;20432;-68
2021/01/08 05:53:34;;;;;;;4.63;3.40;;;0.20;99.90;;;;;;4879706;29;21101;-69
2021/01/08 05:56:00;;;;;;;5.63;4.07;;;0.20;99.90;;;;;;4879821;29;20805;-69
2021/01/08 05:58:28;;;;;;;5.00;4.00;;;0.20;99.90;;;;;;4880478;29;20433;-68
2021/01/08 06:00:55;;;;;;;3.47;2.70;;;0.30;99.90;;;;;;4879916;29;20454;-69
2021/01/08 06:03:22;;;;;;;6.00;3.90;;;0.30;99.90;;;;;;4880183;29;20444;-69
2021/01/08 06:05:52;;;;;;;6.77;3.83;;;0.20;99.90;;;;;;4879904;29;20461;-69
2021/01/08 06:08:21;;;;;;;8.37;3.50;;;0.30;99.90;;;;;;4880157;29;20554;-69
2021/01/08 06:10:52;;;;;;;5.93;3.40;;;0.20;99.90;;;;;;4880117;29;20474;-69
2021/01/08 06:13:21;;;;;;;7.20;4.10;;;0.20;99.90;;;;;;4879697;29;20985;-69
2021/01/08 06:15:49;;;;;;;5.37;3.10;;;0.30;99.90;;;;;;4880003;29;20465;-69
2021/01/08 06:18:19;;;;;;;6.03;3.57;;;0.30;99.90;;;;;;4880231;29;20453;-70
2021/01/08 06:20:46;;;;;;;3.63;3.17;;;0.30;99.90;;;;;;4879867;29;20432;-71
2021/01/08 06:23:38;;;;;;;5.40;4.47;;;0.30;99.90;;;;;;4879584;29;20951;-69
2021/01/08 06:26:05;;;;;;;4.30;3.10;;;0.30;99.90;;;;;;4879675;29;20538;-69
2021/01/08 06:28:37;;;;;;;4.50;3.70;;;0.20;99.90;;;;;;4880076;29;20424;-68
2021/01/08 06:31:11;;;;;;;4.93;3.60;;;0.20;99.90;;;;;;4879836;29;20425;-69
2021/01/08 06:33:39;;;;;;;6.10;4.57;;;0.30;99.90;;;;;;4879562;29;20463;-69
2021/01/08 06:36:18;;;;;;;7.47;3.77;;;0.20;99.90;;;;;;4879764;29;20436;-69
2021/01/08 06:38:48;;;;;;;5.63;4.50;;;0.20;99.90;;;;;;4879764;29;20492;-68
2021/01/08 06:41:16;;;;;;;5.80;4.20;;;0.30;99.90;;;;;;4879979;29;20409;-68
2021/01/08 06:43:47;;;;;;;5.80;3.73;;;0.30;99.90;;;;;;4879301;29;20481;-69
2021/01/08 06:46:26;;;;;;;4.03;3.53;;;0.30;99.90;;;;;;4879616;29;21107;-69
2021/01/08 06:48:54;;;;;;;6.13;4.20;;;0.30;99.90;;;;;;4879312;29;20923;-69
2021/01/08 06:51:27;;;;;;;7.40;4.40;;;0.30;99.90;;;;;;4879651;29;20428;-69
2021/01/08 06:53:57;;;;;;;6.07;3.70;;;0.30;99.90;;;;;;4879196;29;20859;-69
2021/01/08 06:56:29;;;;;;;4.17;3.07;;;0.40;99.90;;;;;;4879884;29;20421;-69
2021/01/08 06:58:56;;;;;;;4.53;3.33;;;0.40;99.90;;;;;;4879593;29;20470;-68
2021/01/08 07:01:31;;;;;;;5.07;3.20;;;0.40;99.90;;;;;;4879400;29;20454;-68
2021/01/08 07:03:58;;;;;;;5.33;3.90;;;0.40;99.90;;;;;;4879469;29;20443;-69
2021/01/08 07:06:24;;;;;;;4.57;3.50;;;0.40;99.90;;;;;;4879372;29;20529;-69
2021/01/08 07:08:50;;;;;;;7.00;3.97;;;0.40;99.90;;;;;;4882674;29;20436;-68
2021/01/08 07:11:25;;;;;;;4.87;3.23;;;0.30;99.90;;;;;;4883319;29;20436;-69
2021/01/08 07:14:03;;;;;;;4.23;2.97;;;0.30;99.90;;;;;;4883124;29;20496;-69
2021/01/08 07:16:30;;;;;;;5.50;3.50;;;0.30;99.90;;;;;;4883121;29;20597;-69
2021/01/08 07:19:04;;;;;;;4.90;3.50;;;0.20;99.90;;;;;;4882832;29;20948;-68
2021/01/08 07:21:32;;;;;;;7.57;3.50;;;0.20;99.90;;;;;;4883186;29;20532;-69
2021/01/08 07:23:58;;;;;;;4.80;2.90;;;0.20;99.90;;;;;;4882993;29;20440;-69
2021/01/08 07:26:28;;;;;;;5.87;3.50;;;0.20;99.90;;;;;;4883222;29;20455;-69
2021/01/08 07:28:55;;;;;;;6.30;3.90;;;0.30;99.90;;;;;;4883209;29;20454;-69
2021/01/08 07:31:31;;;;;;;4.43;3.40;;;0.30;99.90;;;;;;4882651;29;20428;-68
2021/01/08 07:33:58;;;;;;;5.13;3.23;;;0.40;99.90;;;;;;4882731;29;20471;-69
2021/01/08 07:36:26;;;;;;;5.70;3.50;;;0.40;99.90;;;;;;4882844;29;20477;-69
2021/01/08 07:38:52;;;;;;;6.10;3.93;;;0.50;99.90;;;;;;4882821;29;20874;-69
2021/01/08 07:41:37;;;;;;;6.20;3.20;;;0.40;99.90;;;;;;4882623;29;20429;-69
2021/01/08 07:44:25;;;;;;;4.27;3.03;;;0.60;99.90;;;;;;4882495;29;20469;-69
2021/01/08 07:46:53;;;;;;;5.43;2.93;;;0.60;99.90;;;;;;4882561;29;20958;-68
2021/01/08 07:49:26;;;;;;;6.77;3.20;;;0.70;99.90;;;;;;4882571;29;20428;-69
2021/01/08 07:51:53;;;;;;;4.83;2.80;;;0.70;99.90;;;;;;4882838;29;20455;-69
2021/01/08 07:54:55;;;;;;;2.60;2.40;;;0.80;99.90;;;;;;4881887;29;20497;-69
2021/01/08 07:57:21;;;;;;;3.57;2.40;;;0.80;99.90;;;;;;4882793;29;20433;-69
2021/01/08 07:59:47;;;;;;;4.07;3.53;;;0.90;99.90;;;;;;4882040;29;20453;-68
2021/01/08 08:02:14;;;;;;;3.73;2.73;;;0.90;99.90;;;;;;4882543;29;20454;-68
2021/01/08 08:04:42;;;;;;;3.80;2.80;;;1.00;99.90;;;;;;4881831;29;21021;-69
2021/01/08 08:07:11;;;;;;;2.53;2.13;;;1.00;99.90;;;;;;4882162;29;20445;-68
2021/01/08 08:09:38;;;;;;;2.50;2.30;;;1.10;99.90;;;;;;4881851;29;20936;-69
2021/01/08 08:12:10;;;;;;;2.40;2.20;;;1.10;99.90;;;;;;4882206;29;20429;-69
2021/01/08 08:14:36;;;;;;;3.80;2.67;;;1.10;99.90;;;;;;4881919;29;20484;-69
2021/01/08 08:17:02;;;;;;;3.23;2.73;;;1.10;99.90;;;;;;4882157;29;20413;-69
2021/01/08 08:19:33;;;;;;;3.60;2.43;;;1.10;99.90;;;;;;4881499;29;20474;-69
2021/01/08 08:21:59;;;;;;;3.13;2.30;;;1.10;99.90;;;;;;4881767;29;20891;-68
2021/01/08 08:24:28;;;;;;;3.63;2.20;;;1.10;99.90;;;;;;4881818;29;20812;-68
2021/01/08 08:26:54;;;;;;;3.50;2.60;;;1.10;99.90;;;;;;4881999;29;20445;-68
2021/01/08 08:29:22;;;;;;;2.30;2.10;;;1.10;99.90;;;;;;4881840;29;20413;-69
2021/01/08 08:31:50;;;;;;;3.47;2.30;;;1.10;99.90;;;;;;4881911;29;20446;-68
2021/01/08 08:34:26;;;;;;;2.00;1.73;;;1.20;99.90;;;;;;4881640;29;20460;-69
2021/01/08 08:36:53;;;;;;;5.40;2.23;;;1.20;99.90;;;;;;4881463;29;20997;-68
2021/01/08 08:39:19;;;;;;;3.40;2.40;;;1.30;99.90;;;;;;4881699;29;20416;-68
2021/01/08 08:41:48;;;;;;;2.97;1.80;;;1.30;99.90;;;;;;4881434;29;20478;-68
2021/01/08 08:44:16;;;;;;;2.20;1.90;;;1.40;99.90;;;;;;4881845;29;20484;-68
2021/01/08 08:46:47;;;;;;;2.00;1.77;;;1.60;99.90;;;;;;4881331;29;21016;-68
2021/01/08 08:49:15;;;;;;;5.03;2.17;;;1.80;99.90;;;;;;4881169;29;20885;-68
2021/01/08 08:51:43;;;;;;;1.83;1.70;;;1.90;99.90;;;;;;4881747;29;20453;-68
2021/01/08 08:54:11;;;;;;;2.17;2.07;;;2.00;99.90;;;;;;4881496;29;20501;-69
2021/01/08 08:56:40;;;;;;;3.37;1.80;;;2.20;99.90;;;;;;4881674;29;20460;-69
2021/01/08 08:59:06;;;;;;;3.07;1.60;;;2.40;99.90;;;;;;4881401;29;20489;-69
2021/01/08 09:01:40;;;;;;;2.20;1.90;;;2.50;99.90;;;;;;4881057;29;20950;-68
2021/01/08 09:04:07;;;;;;;3.40;2.43;;;2.70;99.90;;;;;;4881252;29;20472;-68
2021/01/08 09:06:35;;;;;;;2.30;2.10;;;2.90;99.90;;;;;;4881284;29;20461;-69
2021/01/08 09:09:17;;;;;;;1.80;1.40;;;3.10;99.90;;;;;;4881612;29;20919;-69
2021/01/08 09:11:58;;;;;;;2.10;1.70;;;3.30;99.90;;;;;;4881236;29;20438;-69
2021/01/08 09:14:29;;;;;;;1.70;1.43;;;3.60;99.90;;;;;;4881010;29;20497;-69
2021/01/08 09:17:02;;;;;;;1.67;1.40;;;3.80;99.90;;;;;;4880993;29;20457;-68
2021/01/08 09:19:35;;;;;;;1.83;1.70;;;3.90;99.90;;;;;;4881039;29;20442;-68
2021/01/08 09:22:05;;;;;;;1.67;1.57;;;4.00;99.90;;;;;;4881055;29;20438;-72
2021/01/08 09:24:34;;;;;;;2.93;1.70;;;4.00;99.90;;;;;;4880462;29;20470;-69
2021/01/08 09:27:02;;;;;;;2.30;2.10;;;4.00;99.90;;;;;;4880825;29;20513;-69
2021/01/08 09:29:29;;;;;;;1.40;1.30;;;4.10;99.90;;;;;;4880830;29;20450;-69
2021/01/08 09:31:56;;;;;;;1.53;1.37;;;4.10;99.90;;;;;;4879662;29;20966;-69
2021/01/08 09:34:24;;;;;;;1.73;1.63;;;4.10;99.90;;;;;;4880454;29;20521;-69
2021/01/08 09:36:51;;;;;;;5.53;1.87;;;4.10;99.90;;;;;;4880680;29;20454;-69
2021/01/08 09:39:18;;;;;;;2.30;2.10;;;4.20;99.90;;;;;;4880664;29;20450;-69
2021/01/08 09:41:55;;;;;;;2.10;1.80;;;4.30;99.90;;;;;;4880552;29;20454;-69
2021/01/08 09:44:29;;;;;;;1.67;1.57;;;4.30;99.90;;;;;;4880272;29;20982;-69
2021/01/08 09:46:56;;;;;;;1.87;1.57;;;4.50;99.90;;;;;;4880291;29;20946;-68
2021/01/08 09:49:23;;;;;;;1.70;1.60;;;4.70;99.90;;;;;;4880477;29;20458;-69
2021/01/08 09:52:00;;;;;;;2.20;1.63;;;4.80;99.90;;;;;;4880338;29;20453;-69
2021/01/08 09:54:42;;;;;;;2.37;1.47;;;5.00;99.90;;;;;;4880293;29;20490;-69
2021/01/08 09:57:09;;;;;;;2.20;1.67;;;5.00;99.90;;;;;;4880419;29;20480;-69
2021/01/08 09:59:36;;;;;;;1.70;1.60;;;4.90;99.90;;;;;;4880073;29;20441;-69
2021/01/08 10:02:05;;;;;;;1.97;1.63;;;4.90;99.90;;;;;;4880359;29;20430;-69
2021/01/08 10:04:33;;;;;;;1.73;1.60;;;4.80;99.90;;;;;;4879739;29;21012;-69
2021/01/08 10:07:01;;;;;;;2.33;1.80;;;4.60;99.90;;;;;;4880120;29;20450;-69
2021/01/08 10:09:28;;;;;;;1.60;1.47;;;4.50;99.90;;;;;;4880137;29;20483;-69
2021/01/08 10:12:01;;;;;;;2.03;1.90;;;4.40;99.90;;;;;;4880140;29;20453;-69
2021/01/08 10:14:32;;;;;;;1.90;1.77;;;4.30;99.90;;;;;;4880009;29;20870;-69
2021/01/08 10:17:11;;;;;;;1.57;1.47;;;4.30;99.90;;;;;;4880034;29;20491;-69
2021/01/08 10:19:40;;;;;;;4.83;1.73;;;4.30;99.90;;;;;;4879970;29;20453;-69
2021/01/08 10:22:06;;;;;;;2.03;1.83;;;4.30;99.90;;;;;;4879886;29;20476;-69
2021/01/08 10:24:32;;;;;;;1.60;1.40;;;4.30;99.90;;;;;;4879607;29;20469;-69
2021/01/08 10:26:59;;;;;;;2.37;1.83;;;4.40;99.90;;;;;;4879732;29;20481;-69
2021/01/08 10:29:36;;;;;;;2.27;1.67;;;4.40;99.90;;;;;;4879814;29;20454;-69
2021/01/08 10:32:07;;;;;;;2.33;2.13;;;4.40;99.90;;;;;;4879789;29;20453;-69
2021/01/08 10:34:35;;;;;;;2.13;2.03;;;4.40;99.90;;;;;;4879656;29;20592;-69
2021/01/08 10:37:01;;;;;;;2.17;1.77;;;4.20;99.90;;;;;;4879475;29;21018;-69
2021/01/08 10:39:27;;;;;;;2.17;1.83;;;4.20;99.90;;;;;;4879469;29;20449;-69
2021/01/08 10:41:54;;;;;;;2.30;1.90;;;4.20;99.90;;;;;;4879529;29;20494;-69
2021/01/08 10:44:20;;;;;;;2.90;2.13;;;4.20;99.90;;;;;;4879369;29;20990;-69
2021/01/08 10:46:47;;;;;;;2.40;1.83;;;4.30;99.90;;;;;;4879661;29;20438;-68
2021/01/08 10:49:13;;;;;;;2.07;1.87;;;4.30;99.90;;;;;;4879624;29;20413;-69
2021/01/08 10:51:39;;;;;;;3.50;2.00;;;4.20;99.90;;;;;;4879369;29;20820;-69
2021/01/08 10:54:06;;;;;;;1.80;1.70;;;4.20;99.90;;;;;;4878973;29;20498;-69
2021/01/08 10:56:32;;;;;;;2.63;2.00;;;4.40;99.90;;;;;;4879320;29;20438;-69
2021/01/08 10:58:58;;;;;;;2.30;2.10;;;4.50;99.90;;;;;;4879567;29;20439;-69
2021/01/08 11:01:24;;;;;;;2.50;2.30;;;4.50;99.90;;;;;;4879575;29;20808;-69
2021/01/08 11:03:51;;;;;;;3.27;2.23;;;4.70;99.90;;;;;;4879419;29;20855;-69
2021/01/08 11:06:18;;;;;;;2.00;1.70;;;4.80;99.90;;;;;;4879520;29;20445;-69
2021/01/08 11:08:44;;;;;;;2.43;1.43;;;5.00;99.90;;;;;;4879534;29;20434;-69
2021/01/08 11:11:11;;;;;;;2.93;2.30;;;5.10;99.90;;;;;;4879512;29;20438;-69
2021/01/08 11:13:37;;;;;;;3.50;1.90;;;5.30;99.90;;;;;;4879152;29;20500;-69
2021/01/08 11:16:05;;;;;;;2.10;1.80;;;5.70;99.90;;;;;;4879350;29;20456;-69
2021/01/08 11:18:31;;;;;;;3.37;2.30;;;5.90;99.90;;;;;;4879261;29;20434;-69
2021/01/08 11:20:58;;;;;;;2.20;1.97;;;6.00;99.90;;;;;;4879231;29;20442;-69
2021/01/08 11:23:24;;;;;;;4.63;2.30;;;6.10;99.90;;;;;;4878974;29;21137;-69
2021/01/08 11:25:51;;;;;;;2.03;1.70;;;6.70;99.90;;;;;;4879287;29;20434;-69
2021/01/08 11:28:17;;;;;;;2.10;1.90;;;6.80;99.90;;;;;;4878942;29;20444;-69
2021/01/08 11:30:43;;;;;;;3.43;2.20;;;6.90;99.90;;;;;;4879282;29;20438;-68
2021/01/08 11:33:10;;;;;;;2.27;2.00;;;6.60;99.90;;;;;;4878804;29;20923;-69
2021/01/08 11:35:36;;;;;;;2.17;1.90;;;6.30;99.90;;;;;;4879166;29;20445;-68
2021/01/08 11:38:03;;;;;;;2.80;2.40;;;6.30;99.90;;;;;;4879210;29;20461;-69
2021/01/08 11:40:29;;;;;;;2.00;1.80;;;6.00;99.90;;;;;;4879218;29;20795;-69
2021/01/08 11:42:55;;;;;;;2.13;1.60;;;5.90;99.90;;;;;;4879607;29;20509;-69
2021/01/08 11:45:22;;;;;;;9.03;3.50;;;5.80;99.90;;;;;;4879028;29;20438;-69
2021/01/08 11:47:48;;;;;;;4.20;2.83;;;5.70;99.90;;;;;;4879141;29;20493;-69
2021/01/08 11:50:14;;;;;;;2.60;2.00;;;5.60;99.90;;;;;;4879099;29;20461;-69
2021/01/08 11:52:41;;;;;;;2.60;2.40;;;5.40;99.90;;;;;;4878780;29;20492;-69
2021/01/08 11:55:09;;;;;;;3.53;2.23;;;5.40;99.90;;;;;;4880811;29;20582;-69
2021/01/08 11:57:35;;;;;;;4.10;2.40;;;5.30;99.90;;;;;;4882499;29;20441;-69
2021/01/08 12:00:01;;;;;;;3.03;1.80;;;5.40;99.90;;;;;;4882448;29;20445;-69
2021/01/08 12:02:28;;;;;;;2.80;1.90;;;5.50;99.90;;;;;;4882297;29;20438;-68
2021/01/08 12:04:54;;;;;;;2.13;1.53;;;5.60;99.90;;;;;;4882342;29;20472;-69
2021/01/08 12:07:20;;;;;;;2.60;2.37;;;5.80;99.90;;;;;;4882384;29;20438;-69
2021/01/08 12:09:46;;;;;;;1.83;1.50;;;5.90;99.90;;;;;;4882346;29;20491;-69
2021/01/08 12:12:13;;;;;;;2.70;1.93;;;6.00;99.90;;;;;;4881991;29;20923;-68
2021/01/08 12:14:39;;;;;;;2.30;1.43;;;6.00;99.90;;;;;;4881820;29;20998;-69
2021/01/08 12:17:07;;;;;;;2.23;2.03;;;6.00;99.90;;;;;;4881656;29;20987;-69
2021/01/08 12:19:34;;;;;;;1.63;1.53;;;6.00;99.90;;;;;;4882023;29;20520;-66
2021/01/08 12:22:00;;;;;;;1.93;1.60;;;6.00;99.90;;;;;;4881775;29;20439;-66
2021/01/08 12:24:27;;;;;;;2.53;2.10;;;5.70;99.90;;;;;;4882001;29;20466;-68
2021/01/08 12:26:54;;;;;;;3.57;2.50;;;5.50;99.90;;;;;;4882217;29;20450;-69
2021/01/08 12:29:22;;;;;;;2.17;1.80;;;5.40;99.90;;;;;;4881716;29;20502;-69
2021/01/08 12:31:48;;;;;;;2.10;1.93;;;5.20;99.90;;;;;;4881927;29;20442;-70
2021/01/08 12:34:16;;;;;;;2.00;1.80;;;5.00;99.90;;;;;;4881800;29;20501;-69
2021/01/08 12:36:43;;;;;;;3.70;2.20;;;5.00;99.90;;;;;;4881825;29;20434;-69
2021/01/08 12:39:10;;;;;;;3.70;1.90;;;4.90;99.90;;;;;;4881517;29;20438;-69
2021/01/08 12:41:36;;;;;;;2.30;2.10;;;4.90;99.90;;;;;;4881663;29;20461;-69
2021/01/08 12:44:03;;;;;;;5.00;2.07;;;4.80;99.90;;;;;;4881683;29;20473;-69
2021/01/08 12:46:30;;;;;;;2.30;1.87;;;4.80;99.90;;;;;;4881683;29;20441;-70
2021/01/08 12:48:56;;;;;;;2.53;2.03;;;4.80;99.90;;;;;;4881611;29;20438;-70
2021/01/08 12:51:22;;;;;;;1.77;1.50;;;4.80;99.90;;;;;;4881331;29;20919;-69
2021/01/08 12:53:48;;;;;;;2.87;1.73;;;4.90;99.90;;;;;;4881207;29;20506;-70
2021/01/08 12:56:15;;;;;;;2.57;2.33;;;4.90;99.90;;;;;;4873408;29;20855;-70
2021/01/08 12:58:41;;;;;;;2.20;1.90;;;5.00;99.90;;;;;;4881446;29;20442;-69
2021/01/08 13:01:10;;;;;;;3.33;1.53;;;5.10;99.90;;;;;;4881404;29;20438;-69